Pollock, Missouri
Current Conditions -  °F | °C
As of 11:50 AM on Monday 24 Nov 2014 (Local Time) from KTVK Reporting Station
Overcast Overcast  
Wind Chill: 16°   Ceiling: 2100
Heat Index: 28°   Visibility: 10mi
Dew Point: 23°   Wind: 17mph
Humidity: 80%   Direction: 270°W
Pressure: 29.63"   Gusts: 25mph
Location:  40.36°N, 93.08°W
Report Text: KTVK 241750Z AUTO 27015G22KT 10SM OVC021 M02/M05 A2963 RMK AO2
Loading
Personal Weather Stations






























Interactive Weather Map New forecast layout! Learn more

10-Day Weather Forecast

Advertisements
Track Severe Weather on mobile